Date,TemperatureHighF,TemperatureAvgF,TemperatureLowF,DewpointHighF,DewpointAvgF,DewpointLowF,HumidityHigh,HumidityAvg,HumidityLow,PressureMaxIn,PressureMinIn,WindSpeedMaxMPH,WindSpeedAvgMPH,GustSpeedMaxMPH,PrecipitationSumIn
2013-1-1,24.0,21.3,20.0,19.8,17.2,14.0,91,84,75,30.06,29.94,35,10,46,0.00
2013-1-2,26.0,22.8,18.0,25.0,20.1,12.3,100,89,72,30.03,29.96,29,13,44,0.00
2013-1-3,30.0,27.8,18.0,30.0,26.4,15.3,100,95,86,30.03,29.86,38,20,56,0.00
2013-1-4,49.0,32.5,25.0,36.5,28.2,22.9,100,85,55,30.01,29.86,62,30,79,0.00
2013-1-5,37.0,32.9,29.0,36.0,31.4,27.7,100,94,84,30.05,29.73,47,17,75,0.14
2013-1-6,37.0,33.3,30.0,36.5,31.5,24.0,100,93,72,30.13,29.67,46,19,69,0.09
2013-1-7,36.0,32.0,27.0,33.6,28.5,22.4,100,87,67,30.15,29.90,51,24,72,0.00
2013-1-8,39.0,34.8,28.0,35.2,31.0,26.8,100,87,68,30.03,29.86,34,14,52,0.00
2013-1-9,42.0,38.8,35.0,37.9,33.9,29.7,95,83,63,30.30,29.79,53,26,88,0.00
2013-1-10,44.0,36.0,28.0,36.0,30.3,24.1,100,82,47,30.36,29.79,24,9,41,0.37
2013-1-11,52.0,44.8,36.0,51.0,44.7,36.0,100,99,94,29.79,29.51,45,14,55,0.37
2013-1-12,50.0,42.3,33.0,48.6,41.1,33.0,100,96,88,29.79,29.53,52,16,58,0.02
2013-1-13,33.0,28.6,21.0,33.0,28.2,20.5,100,99,92,30.02,29.69,52,13,57,0.16
2013-1-14,27.0,21.8,19.0,21.0,18.6,16.8,100,88,66,30.29,30.02,29,13,52,0.00
2013-1-15,30.0,25.3,22.0,21.4,19.3,16.6,91,78,65,30.27,29.97,23,8,43,0.00
2013-1-16,35.0,30.4,22.0,32.5,26.3,19.8,99,85,66,29.97,29.59,55,25,83,0.02
2013-1-17,34.0,25.8,21.0,31.4,19.7,13.3,90,77,66,30.21,29.84,37,15,66,0.00
2013-1-18,39.0,30.0,21.0,34.9,25.3,14.3,96,82,75,30.27,29.67,70,24,79,0.00
2013-1-19,43.0,38.7,26.0,39.6,35.4,21.3,96,88,55,29.72,29.37,108,32,114,0.05
2013-1-20,25.0,16.4,15.0,20.6,13.6,8.6,100,89,72,30.11,29.58,103,24,121,0.00
2013-1-21,17.0,10.1,4.0,15.8,9.5,2.4,100,98,81,30.03,29.91,49,24,74,0.00
2013-1-22,10.0,6.5,3.0,10.0,6.0,1.7,100,98,82,30.14,30.02,48,18,63,0.00
2013-1-23,18.0,12.2,3.0,18.0,11.5,3.0,100,97,77,30.14,29.85,60,17,67,0.00
2013-1-24,18.0,10.4,3.0,13.0,7.5,3.0,100,89,60,30.43,30.07,17,7,36,0.00
2013-1-25,25.0,17.9,11.0,23.8,16.1,6.9,100,93,73,30.24,29.73,34,12,58,0.00
2013-1-26,25.0,22.8,19.0,22.7,19.2,15.9,100,86,75,30.21,29.88,32,7,49,0.00
2013-1-27,31.0,25.4,20.0,31.0,22.6,17.5,100,89,75,30.20,29.75,27,9,36,20.54
2013-1-28,40.0,35.1,31.0,40.0,34.0,30.5,100,96,88,29.77,29.57,27,12,47,0.00
2013-1-29,57.0,46.5,33.0,51.0,42.6,31.2,100,87,68,29.67,29.17,37,16,109,1.33
2013-1-30,44.0,33.4,23.0,41.0,31.0,18.3,96,91,82,29.28,28.97,52,13,62,0.37
2013-1-31,23.0,17.7,14.0,20.0,15.9,13.3,100,92,80,29.79,29.29,49,27,76,0.00
2013-2-1,17.0,13.6,11.0,15.8,12.7,10.1,100,96,87,30.08,29.79,52,23,56,0.00
2013-2-2,22.0,14.6,8.0,20.0,14.0,8.0,100,97,88,29.94,29.79,33,11,56,0.00
2013-2-3,26.0,16.3,9.0,23.2,14.6,9.0,100,93,75,29.84,29.70,36,14,55,0.00
2013-2-4,24.0,18.0,12.0,21.0,16.6,12.0,100,94,83,29.81,29.69,25,7,42,0.00
2013-2-5,28.0,20.9,10.0,25.0,19.0,10.0,100,93,85,29.84,29.55,39,14,65,0.00
2013-2-6,30.0,26.4,21.0,25.5,22.0,18.3,92,83,73,30.03,29.85,19,7,31,0.01
2013-2-7,31.0,28.5,26.0,30.2,26.4,22.4,98,92,83,29.98,29.65,23,9,35,0.11
2013-2-8,29.0,25.2,17.0,27.5,23.1,17.0,100,92,86,30.19,29.67,39,12,50,0.28
2013-2-9,33.0,22.0,11.0,25.6,19.3,11.0,100,90,69,30.23,29.96,17,8,28,0.19
2013-2-10,46.0,31.7,20.0,41.1,28.7,19.0,98,89,81,29.96,29.27,58,14,68,0.23
2013-2-11,42.0,33.3,29.0,38.1,29.6,24.2,92,86,80,29.72,29.25,75,35,86,0.00
2013-2-12,43.0,28.5,24.0,35.6,25.2,21.8,93,87,67,29.85,29.70,35,19,50,0.00
2013-2-13,35.0,30.4,25.0,30.7,27.0,22.2,90,87,83,29.71,29.50,25,11,36,0.00
2013-2-14,38.0,33.0,25.0,32.7,29.1,21.7,96,86,80,29.73,29.38,71,22,73,0.01
2013-2-15,25.0,22.8,20.0,22.2,19.3,13.7,94,86,67,29.95,29.73,27,12,39,0.00
2013-2-16,22.0,17.3,10.0,19.0,15.4,10.0,100,92,72,29.96,29.85,51,16,52,0.00
2013-2-17,25.0,14.1,6.0,19.3,11.3,6.0,100,89,64,30.03,29.89,22,9,37,0.00
2013-2-18,47.0,34.9,20.0,40.5,26.4,13.4,85,71,61,29.89,29.12,56,14,76,0.89
2013-2-19,37.0,21.6,15.0,34.1,20.1,14.5,100,94,84,29.83,29.13,86,16,95,0.02
2013-2-20,21.0,18.5,15.0,19.8,17.3,14.8,100,95,88,30.11,29.83,39,19,61,0.00
2013-2-21,25.0,20.7,19.0,22.2,19.0,17.3,96,93,86,30.16,29.91,27,9,38,0.00
2013-2-22,32.0,21.8,0.0,31.0,23.0,17.8,100,93,85,29.92,29.60,41,14,57,0.00
2013-2-23,30.0,28.0,25.0,26.3,22.7,20.6,86,80,75,29.69,29.59,43,25,62,0.00
2013-2-24,35.0,29.9,25.0,29.1,25.1,22.0,89,82,78,29.94,29.67,37,11,44,0.07
2013-2-25,45.0,29.8,20.0,31.8,23.9,18.8,98,80,54,30.00,29.83,12,7,25,0.00
2013-2-26,34.0,29.5,27.0,27.4,24.2,22.2,90,80,71,29.83,29.37,34,11,55,0.06
2013-2-27,35.0,32.5,31.0,33.4,31.1,28.7,100,95,84,29.42,29.28,18,5,29,0.40
2013-2-28,33.0,30.8,28.0,30.2,28.1,24.9,97,90,87,29.80,29.42,33,12,51,0.23
2013-3-1,32.0,26.4,19.0,25.2,21.9,18.3,99,83,69,29.97,29.80,18,6,25,0.09
2013-3-2,27.0,20.9,15.0,24.0,18.9,15.0,100,92,79,29.97,29.86,27,10,39,0.00
2013-3-3,32.0,21.5,15.0,22.4,18.6,15.0,100,89,58,29.93,29.82,25,9,40,0.00
2013-3-4,36.0,25.3,15.0,22.5,18.5,15.0,100,77,53,29.96,29.83,12,5,18,0.00
2013-3-5,31.0,25.9,21.0,26.1,21.4,17.2,94,83,75,29.87,29.63,26,10,40,0.00
2013-3-6,33.0,30.1,25.0,30.4,27.9,23.5,94,91,88,30.01,29.74,29,12,48,0.00
2013-3-7,36.0,30.1,26.0,29.9,27.1,22.9,93,89,74,30.21,30.01,27,9,36,0.00
2013-3-8,39.0,28.9,20.0,31.4,25.3,20.0,100,87,65,30.28,30.15,12,6,18,0.00
2013-3-9,43.0,35.3,27.0,35.3,29.2,23.6,91,79,65,30.15,29.66,27,11,31,0.01
2013-3-10,54.0,45.7,41.0,45.7,40.2,34.5,88,81,58,29.65,29.40,39,12,44,0.43
2013-3-11,54.0,40.0,33.0,46.2,38.5,30.9,100,95,73,29.45,29.27,38,16,56,0.21
2013-3-12,34.0,30.6,27.0,32.5,28.8,24.6,100,93,80,29.69,29.44,42,23,65,0.00
2013-3-13,38.0,26.4,23.0,27.0,22.3,17.5,100,85,57,30.03,29.68,38,19,52,0.00
2013-3-14,40.0,31.1,24.0,31.5,25.4,19.5,94,80,56,30.06,29.86,44,12,45,0.00
2013-3-15,39.0,33.8,32.0,36.3,32.2,30.7,100,94,90,29.85,29.61,36,10,46,0.05
2013-3-16,32.0,27.6,24.0,32.0,26.5,23.1,100,96,85,29.87,29.53,31,12,54,0.10
2013-3-17,33.0,27.4,22.0,26.4,19.3,13.5,90,72,51,30.03,29.87,29,10,46,0.00
2013-3-18,34.0,26.6,20.0,33.0,26.0,20.0,100,98,91,29.89,29.35,57,14,85,0.07
2013-3-19,29.0,23.4,18.0,27.5,21.4,18.0,100,93,66,29.75,29.41,58,36,90,0.00
2013-3-20,28.0,20.1,16.0,22.6,17.9,12.4,100,91,68,29.80,29.72,52,21,65,0.00
2013-3-21,26.0,23.7,17.0,25.8,22.5,16.2,100,95,84,29.78,29.69,42,18,51,0.00
2013-3-22,30.0,28.0,26.0,27.4,24.6,21.1,95,87,78,29.85,29.77,28,11,36,0.00
2013-3-23,38.0,29.4,26.0,29.9,26.3,23.2,96,88,66,29.91,29.84,23,5,28,0.00
2013-3-24,38.0,29.8,25.0,28.8,25.9,22.0,100,86,65,29.84,29.45,25,7,55,0.00
2013-3-25,37.0,31.5,28.0,32.4,28.2,24.8,96,88,70,29.78,29.46,30,12,38,0.00
2013-3-26,35.0,32.9,30.0,33.7,31.9,29.8,100,96,93,29.96,29.77,23,13,41,0.00
2013-3-27,36.0,34.4,33.0,33.9,32.8,32.0,98,94,86,30.04,29.96,35,13,43,0.00
2013-3-28,40.0,35.3,33.0,36.9,33.6,31.2,97,94,80,30.08,30.03,26,8,35,0.00
2013-3-29,40.0,33.4,29.0,37.0,32.6,29.0,100,97,89,30.08,30.00,15,6,22,0.00
2013-3-30,52.0,37.7,24.0,38.9,28.8,18.7,100,75,35,30.03,29.63,20,8,30,0.01
2013-3-31,47.0,38.0,35.0,39.5,35.8,32.6,100,92,74,29.62,29.45,27,12,44,0.05
2013-4-1,35.0,29.3,27.0,33.4,20.4,15.1,94,69,57,29.90,29.56,40,18,62,0.00
2013-4-2,33.0,30.3,25.0,27.7,20.6,15.0,91,67,49,30.06,29.89,40,14,48,0.00
2013-4-3,35.0,31.1,24.0,29.8,21.8,13.6,89,69,50,30.21,30.04,29,10,40,0.00
2013-4-4,46.0,35.5,27.0,34.9,25.7,18.3,87,68,41,30.12,29.70,26,12,49,0.00
2013-4-5,39.0,34.6,30.0,35.7,29.8,18.0,93,83,44,29.97,29.73,37,12,46,0.00
2013-4-6,61.0,46.0,34.0,46.3,28.4,18.2,81,52,34,29.94,29.35,35,13,50,0.02
2013-4-7,58.0,40.2,36.0,45.0,36.4,32.0,92,86,62,29.78,29.33,37,14,46,0.09
2013-4-8,56.0,39.1,35.0,50.9,36.8,32.8,100,92,82,29.77,29.35,74,17,74,0.30
2013-4-9,48.0,40.9,35.0,44.3,38.9,35.0,100,93,79,29.81,29.57,28,9,94,1.45
2013-4-10,41.0,39.6,37.0,35.9,34.6,32.3,89,82,78,29.77,29.57,38,10,58,0.46
2013-4-11,37.0,35.7,34.0,33.5,31.2,29.1,89,84,81,29.73,29.38,38,14,50,1.29
2013-4-12,37.0,35.5,33.0,36.5,31.7,29.0,100,86,80,29.55,29.34,34,17,66,0.12
2013-4-13,37.0,35.7,34.0,33.5,31.9,28.8,90,86,78,29.75,29.54,40,22,66,0.01
2013-4-14,54.0,40.7,33.0,44.4,35.5,28.7,89,82,64,29.84,29.51,42,11,61,0.08
2013-4-15,57.0,50.7,42.0,50.5,42.7,31.5,86,74,62,29.71,29.47,35,12,55,0.68
2013-4-16,43.0,39.4,37.0,39.0,33.7,27.3,90,80,65,30.02,29.69,24,8,33,0.18
2013-4-17,49.0,44.0,41.0,42.1,35.6,32.6,83,72,61,30.06,29.64,37,10,60,1.22
2013-4-18,62.0,52.1,44.0,52.2,42.0,31.5,85,70,34,29.68,29.13,36,13,120,2.79
2013-4-19,44.0,37.3,33.0,34.1,30.3,22.4,89,76,49,29.57,29.20,61,32,79,0.09
2013-4-20,35.0,31.2,28.0,31.2,24.2,20.1,92,76,58,30.23,29.57,38,13,62,0.00
2013-4-21,52.0,38.5,26.0,32.4,24.4,17.6,92,61,30,30.34,30.10,19,8,36,0.00
2013-4-22,60.0,48.6,37.0,37.5,31.9,26.7,86,56,31,30.13,29.81,26,9,34,0.00
2013-4-23,60.0,47.5,37.0,49.3,36.7,24.5,83,67,44,29.83,29.62,38,14,48,0.42
2013-4-24,42.0,36.2,32.0,37.2,29.8,21.6,87,78,59,29.85,29.66,46,14,46,0.15
2013-4-25,43.0,40.3,37.0,37.6,33.6,27.1,83,77,64,30.07,29.77,38,17,59,0.12
2013-4-26,56.0,48.4,40.0,48.3,38.0,28.3,81,68,41,30.13,29.98,20,10,37,0.00
2013-4-27,59.0,54.0,50.0,49.9,45.9,41.4,82,75,54,30.02,29.77,25,10,41,0.00
2013-4-28,64.0,52.5,45.0,55.5,43.0,33.9,83,70,58,29.77,29.57,19,7,33,0.00
2013-4-29,65.0,52.3,41.0,56.3,43.2,30.0,83,72,45,29.68,29.53,19,8,28,0.00
2013-4-30,79.0,67.2,57.0,64.0,55.8,44.5,79,68,48,29.65,29.52,28,13,44,0.24
2013-5-1,74.0,70.1,65.0,63.6,58.0,52.3,78,66,50,29.88,29.65,21,8,37,0.00
2013-5-2,69.0,53.6,42.0,59.8,43.5,31.5,81,69,49,29.94,29.85,34,10,44,0.00
2013-5-3,60.0,51.5,43.0,52.0,38.6,31.6,75,61,52,29.91,29.74,19,7,35,0.05
2013-5-4,74.0,65.5,57.0,53.4,42.6,33.6,76,45,24,29.79,29.68,20,9,33,0.00
2013-5-5,75.0,64.2,55.0,46.4,40.8,31.8,69,44,27,29.81,29.67,25,7,33,0.00
2013-5-6,70.0,59.2,53.0,50.8,40.5,31.9,80,52,29,29.80,29.71,23,9,33,0.00
2013-5-7,73.0,60.0,55.0,53.8,46.7,36.0,81,63,36,29.79,29.72,23,9,41,0.00
2013-5-8,66.0,60.7,56.0,56.6,50.4,39.5,82,70,39,29.78,29.70,15,5,22,0.00
2013-5-9,73.0,59.6,51.0,54.9,46.3,37.9,80,64,30,29.75,29.59,17,5,26,0.12
2013-5-10,54.0,48.9,44.0,45.9,37.4,31.9,74,64,59,29.72,29.54,17,7,28,0.24
2013-5-11,47.0,42.1,38.0,41.5,34.3,26.3,93,74,53,29.76,29.56,53,15,77,0.01
2013-5-12,43.0,39.3,37.0,39.1,34.7,31.7,87,83,74,29.92,29.74,56,15,56,0.00
2013-5-13,49.0,43.3,37.0,35.2,27.9,18.0,86,57,30,29.98,29.83,17,5,20,0.00
2013-5-14,73.0,57.5,48.0,57.6,42.7,24.0,79,59,36,29.83,29.31,39,11,55,0.00
2013-5-15,74.0,57.6,51.0,57.3,47.8,35.2,81,71,32,29.61,29.27,42,10,53,0.00
2013-5-16,67.0,54.4,51.0,51.2,45.9,39.5,80,74,37,29.74,29.60,13,6,18,0.00
2013-5-17,67.0,61.0,54.0,50.7,44.9,37.6,71,56,39,29.83,29.72,22,10,30,0.00
2013-5-18,75.0,64.1,56.0,61.7,53.7,43.6,79,70,43,29.87,29.70,20,8,31,0.00
2013-5-19,83.0,71.1,60.0,64.9,58.7,52.0,80,66,43,29.73,29.50,22,8,27,0.00
2013-5-20,76.0,70.5,62.0,67.0,62.1,54.3,80,75,65,29.56,29.46,36,11,44,0.00
2013-5-21,76.0,58.4,57.0,67.9,48.8,47.3,77,71,70,29.55,29.44,40,37,72,0.17
2013-5-22,57.0,55.2,47.0,48.6,46.7,42.4,91,73,69,29.53,0.00,40,30,28,0.65
2013-5-23,52.0,47.5,41.0,49.0,43.5,39.4,94,87,67,30.04,29.52,29,12,46,0.26
2013-5-24,48.0,42.4,35.0,46.4,40.3,33.2,97,93,67,30.18,30.04,21,8,34,0.00
2013-5-25,58.0,48.4,41.0,50.5,43.3,35.8,95,83,51,30.18,30.06,24,7,27,0.00
2013-5-26,67.0,55.8,46.0,51.5,42.5,36.3,96,64,34,30.11,29.93,28,8,32,0.00
2013-5-27,59.0,53.6,51.0,51.4,44.3,39.6,93,71,52,29.95,29.70,33,11,48,0.07
2013-5-28,67.0,58.7,52.0,61.0,51.9,43.6,97,79,62,29.71,29.51,27,13,44,0.58
2013-5-29,75.0,63.5,53.0,71.5,56.3,46.2,95,78,62,29.75,0.00,24,12,44,0.18
2013-5-30,78.0,72.7,67.0,71.7,67.5,61.5,93,84,71,29.69,29.58,27,14,47,0.07
2013-5-31,76.0,67.8,61.0,71.8,62.7,51.7,93,84,65,29.66,29.50,53,12,53,0.18
2013-6-1,71.0,64.3,57.0,69.2,60.9,48.4,97,89,69,29.52,29.38,30,12,115,0.40
2013-6-2,59.0,50.2,46.0,53.2,46.9,40.2,99,89,73,29.83,29.43,41,18,60,0.07
2013-6-3,56.0,50.6,44.0,53.9,45.7,37.7,99,85,56,29.88,29.82,20,6,22,0.00
2013-6-4,70.0,57.4,48.0,58.3,50.5,45.1,98,79,44,29.95,29.87,25,8,30,0.00
2013-6-5,71.0,61.0,55.0,54.8,48.2,33.5,96,66,27,29.90,29.75,20,8,33,0.06
2013-6-6,64.0,56.7,53.0,57.7,53.9,48.9,98,91,60,29.77,29.64,19,7,29,0.05
2013-6-7,67.0,55.1,49.0,56.7,52.0,44.0,98,90,45,29.73,29.64,18,8,31,0.00
2013-6-8,64.0,56.7,48.0,58.3,51.6,35.0,98,85,34,29.78,29.68,11,6,18,0.00
2013-6-9,79.0,67.9,59.0,68.2,61.2,51.7,97,81,50,29.79,29.61,16,7,33,0.00
2013-6-10,69.0,63.1,56.0,66.9,57.3,48.9,96,82,65,29.61,29.49,21,8,26,0.09
2013-6-11,73.0,60.3,52.0,67.6,52.2,34.7,95,76,40,29.71,29.57,19,7,22,0.00
2013-6-12,79.0,69.4,61.0,75.1,63.9,47.9,93,83,60,29.67,29.36,32,6,44,1.07
2013-6-13,63.0,57.4,53.0,57.3,49.1,41.4,94,75,50,29.77,29.38,29,12,40,0.13
2013-6-14,66.0,56.5,50.0,62.0,49.3,38.7,96,78,54,29.87,29.77,19,7,24,0.00
2013-6-15,72.0,63.4,57.0,68.5,59.7,45.5,95,88,51,29.83,29.60,26,6,35,0.00
2013-6-16,69.0,61.1,56.0,65.0,46.2,32.2,90,59,38,29.68,29.53,31,11,47,0.28
2013-6-17,78.0,67.1,60.0,65.3,60.0,44.2,91,79,46,29.67,29.56,20,7,31,0.00
2013-6-18,73.0,63.7,58.0,62.3,51.1,39.8,92,66,40,29.83,29.67,18,7,24,0.00
2013-6-19,70.0,60.1,52.0,59.4,48.2,38.4,91,67,33,29.93,29.83,19,7,25,0.00
2013-6-20,80.0,67.8,56.0,61.7,53.0,45.1,93,63,35,29.93,29.80,12,6,18,0.00
2013-6-21,78.0,71.1,64.0,71.1,64.7,51.2,92,81,61,29.87,29.66,41,10,52,0.00
2013-6-22,80.0,69.9,62.0,73.4,62.8,48.8,91,79,62,29.85,29.68,26,7,27,0.01
2013-6-23,78.0,71.0,66.0,72.8,65.1,55.1,92,82,67,29.77,29.65,28,12,41,0.00
2013-6-24,75.0,69.4,66.0,72.2,61.7,50.7,91,77,56,29.79,29.57,46,13,46,0.00
2013-6-25,73.0,60.5,0.0,69.2,38.8,0.0,88,48,64,29.72,29.54,24,9,60,0.57
2013-6-26,79.0,69.5,65.0,75.8,17.6,0.0,92,20,55,29.61,29.46,25,8,32,0.06
2013-6-27,73.0,67.3,64.0,0.0,0.0,0.0,0,0,100,29.51,29.41,15,6,23,0.00
2013-6-28,70.0,65.7,62.0,0.0,0.0,0.0,0,0,100,29.42,29.32,16,8,23,0.00
2013-6-29,72.0,66.1,61.0,0.0,0.0,0.0,0,0,100,29.51,29.33,22,5,31,0.05
2013-6-30,74.0,67.0,62.0,0.0,0.0,0.0,0,0,100,29.72,29.51,21,6,33,0.00
2013-7-1,76.0,67.0,56.0,0.0,0.0,0.0,0,0,100,29.82,29.72,20,8,35,0.00
2013-7-2,65.0,59.8,54.0,0.0,0.0,0.0,0,0,100,29.86,29.81,13,5,24,0.76
2013-7-3,70.0,63.2,57.0,0.0,0.0,0.0,0,0,100,29.83,29.75,13,6,20,0.30
2013-7-4,72.0,65.7,59.0,0.0,0.0,0.0,0,0,100,29.88,29.78,23,6,28,0.00
2013-7-5,75.0,70.2,67.0,0.0,0.0,0.0,0,0,100,29.84,29.75,14,6,25,0.00
2013-7-6,76.0,71.6,68.0,0.0,0.0,0.0,0,0,100,29.81,29.70,15,7,19,0.00
2013-7-7,75.0,70.7,67.0,0.0,0.0,0.0,0,0,100,29.75,29.68,22,10,29,0.00
2013-7-8,75.0,71.3,68.0,0.0,0.0,0.0,0,0,100,29.75,29.67,22,12,36,0.03
2013-7-9,77.0,70.5,65.0,0.0,0.0,0.0,0,0,100,29.74,29.57,27,6,33,0.10
2013-7-10,73.0,69.8,67.0,0.0,0.0,0.0,0,0,100,29.73,29.54,34,14,48,0.00
2013-7-11,71.0,67.6,65.0,0.0,0.0,0.0,0,0,100,29.81,29.73,31,9,36,0.00
2013-7-12,77.0,67.7,59.0,0.0,0.0,0.0,0,0,100,29.91,29.80,23,8,27,0.00
2013-7-13,81.0,72.0,62.0,0.0,0.0,0.0,0,0,100,29.92,29.83,19,8,27,0.00
2013-7-14,84.0,75.0,67.0,0.0,0.0,0.0,0,0,100,29.95,29.89,18,7,29,0.00
2013-7-15,86.0,77.5,72.0,0.0,0.0,0.0,0,0,100,30.01,29.92,25,6,37,0.00
2013-7-16,82.0,77.7,74.0,0.0,0.0,0.0,0,0,100,30.03,29.94,18,8,26,0.00
2013-7-17,81.3,78.1,75.0,74.0,37.9,0.0,87,43,72,30.01,29.44,12,6,18,0.07
2013-7-18,85.0,80.3,76.4,76.0,74.0,71.0,93,82,66,29.45,29.21,9,4,9,0.00
2013-7-19,82.2,79.2,77.7,76.0,73.9,72.0,93,85,76,29.23,29.00,9,1,9,0.00
2013-7-20,81.5,75.5,68.7,73.0,64.1,54.0,93,69,44,29.24,29.03,9,4,9,0.00
2013-7-21,82.3,70.6,61.8,66.0,58.1,49.0,95,66,50,29.28,29.18,9,5,9,0.12
2013-7-22,77.3,71.7,65.8,69.0,65.6,62.0,95,82,70,29.20,29.02,9,5,9,0.00
2013-7-23,76.1,69.8,57.8,71.0,61.3,48.0,89,75,56,29.98,28.94,9,2,9,1.77
2013-7-24,64.4,59.4,52.5,53.0,49.3,46.0,80,70,55,30.09,29.97,9,4,9,0.00
2013-7-25,69.4,62.6,56.3,60.0,52.9,42.0,82,72,42,30.14,30.06,9,5,9,0.00
2013-7-26,67.6,65.2,62.8,62.0,55.9,42.0,96,74,41,30.07,29.89,9,4,9,0.30
2013-7-27,65.4,60.9,57.5,64.0,56.5,48.0,97,86,70,29.90,29.85,9,3,9,0.01
2013-7-28,61.2,57.6,54.3,55.0,52.7,50.0,93,84,75,29.99,29.81,9,2,9,0.39
2013-7-29,64.5,58.5,55.7,56.0,54.4,53.0,97,88,72,30.22,29.96,9,4,9,0.04
2013-7-30,76.3,63.7,53.1,61.0,54.8,50.0,97,76,44,30.25,30.13,9,4,9,0.00
2013-7-31,68.0,64.7,62.8,66.0,62.6,60.0,100,94,89,30.13,29.95,9,5,9,0.16
2013-8-1,70.0,66.2,62.8,65.0,63.1,61.0,100,91,80,30.00,29.23,13,6,13,0.01
2013-8-2,69.3,66.6,63.2,66.0,64.0,60.0,96,92,87,29.97,29.88,29,8,29,0.10
2013-8-3,70.6,67.0,64.2,65.0,61.7,57.0,96,84,67,30.12,29.94,23,7,23,0.00
2013-8-4,67.3,63.8,56.9,61.0,55.6,51.0,91,76,64,30.24,30.11,21,7,21,0.00
2013-8-5,71.5,64.2,56.3,63.0,56.4,51.0,95,77,62,30.16,29.95,21,5,21,0.01
2013-8-6,73.7,68.0,63.7,69.0,64.7,61.0,96,90,83,29.95,29.88,20,7,20,0.01
2013-8-7,75.2,69.9,63.1,70.0,66.4,60.0,97,90,74,29.98,29.82,22,8,23,0.31
2013-8-8,73.4,65.8,58.6,64.0,58.1,52.0,97,78,47,30.07,29.97,26,6,26,0.00
2013-8-9,71.3,67.1,60.9,65.0,59.4,49.0,89,77,54,30.05,29.99,14,6,14,0.00
2013-8-10,74.6,68.3,62.0,64.0,59.5,55.0,93,75,54,30.17,30.05,18,5,18,0.00
2013-8-11,71.3,67.3,60.2,59.0,55.6,50.0,83,67,55,30.16,30.07,12,4,12,0.00
2013-8-12,71.8,67.4,65.2,68.0,64.6,59.0,99,92,73,30.08,29.89,18,5,18,0.86
2013-8-13,66.3,59.2,53.3,65.0,51.3,47.0,96,76,60,30.15,29.95,27,9,27,0.00
2013-8-14,63.5,57.7,52.4,54.0,49.5,45.0,83,74,68,30.25,30.15,14,4,14,0.00
2013-8-15,66.7,60.9,56.2,61.0,55.8,51.0,92,84,78,30.20,30.13,16,6,16,0.00
2013-8-16,70.8,65.3,56.9,65.0,60.7,56.0,98,86,73,30.23,30.15,15,5,15,0.00
2013-8-17,75.7,67.7,59.2,64.0,58.9,53.0,94,75,56,30.29,30.21,18,6,18,0.00
2013-8-18,74.2,67.8,60.8,65.0,58.9,53.0,90,74,53,30.25,30.14,12,5,12,0.00
2013-8-19,73.8,68.1,62.5,66.0,59.9,56.0,93,77,55,30.16,30.07,14,5,14,0.00
2013-8-20,77.6,72.6,68.0,67.0,63.8,56.0,89,75,58,30.17,30.08,17,8,17,0.00
2013-8-21,80.4,75.1,69.9,69.0,65.6,64.0,88,73,62,30.13,29.98,34,11,35,0.04
2013-8-22,74.0,69.2,65.5,70.0,67.4,64.0,98,95,87,30.13,30.02,55,6,55,2.51
2013-8-23,76.0,67.8,58.7,67.0,58.7,53.0,99,74,46,30.22,30.13,19,6,19,0.00
2013-8-24,79.2,68.6,59.0,65.0,57.9,54.0,91,71,43,30.31,30.21,14,5,14,0.00
2013-8-25,75.9,71.0,65.3,69.0,61.9,56.0,84,74,62,30.30,30.15,24,10,24,0.00
2013-8-26,76.6,72.6,70.4,71.0,68.6,67.0,93,88,81,30.18,30.01,20,10,20,0.00
2013-8-27,78.5,74.7,71.9,73.0,71.2,70.0,98,90,78,30.02,29.84,25,11,25,0.00
2013-8-28,77.1,72.9,70.2,73.0,70.8,69.0,100,94,86,30.07,29.83,20,7,20,0.00
2013-8-29,79.3,72.9,68.0,71.0,69.1,67.0,99,89,74,30.13,30.02,11,4,11,0.00
2013-8-30,78.2,73.9,69.2,73.0,70.0,66.0,96,88,78,30.02,29.05,37,8,37,0.40
2013-8-31,77.5,72.0,65.4,70.0,66.4,63.0,98,84,70,29.91,29.12,17,6,17,0.00
2013-9-1,75.9,71.3,65.8,71.0,67.9,63.0,96,90,78,29.88,29.03,12,6,12,0.00
2013-9-2,72.2,65.0,60.3,70.0,59.2,51.0,96,82,66,30.01,29.79,30,8,30,0.00
2013-9-3,68.1,63.0,57.9,58.0,54.8,52.0,86,76,65,30.11,30.00,18,5,18,0.00
2013-9-4,71.0,66.8,61.8,65.0,61.3,57.0,93,83,78,30.16,30.05,23,10,23,0.00
2013-9-5,69.7,61.6,54.7,61.0,51.4,40.0,92,71,36,30.30,30.15,20,6,20,0.00
2013-9-6,73.8,64.2,54.5,59.0,51.8,47.0,86,66,39,30.28,30.06,18,6,18,0.00
2013-9-7,72.1,69.0,66.6,68.0,64.1,59.0,95,85,66,30.06,29.94,25,9,25,0.00
2013-9-8,77.8,69.7,65.8,66.0,62.5,57.0,98,80,51,30.11,29.99,20,6,21,0.01
2013-9-9,86.7,72.8,61.6,73.0,65.2,58.0,95,79,61,30.06,29.86,24,8,24,0.00
2013-9-10,79.6,74.7,71.5,71.0,68.9,67.0,92,83,66,30.03,29.88,25,14,25,0.00
2013-9-11,80.6,73.0,70.8,71.0,68.8,66.0,95,88,65,30.10,29.99,28,8,28,0.00
2013-9-12,71.4,68.0,57.5,70.0,59.2,48.0,98,75,57,30.08,29.95,33,9,33,0.00
2013-9-13,57.9,55.2,49.6,49.0,45.3,40.0,84,70,54,30.18,30.09,22,8,22,0.00
2013-9-14,61.7,54.3,45.2,53.0,46.2,41.0,90,75,61,30.21,30.08,22,8,22,0.00
2013-9-15,60.3,57.6,55.1,56.0,51.0,39.0,99,81,47,30.19,30.07,21,6,21,0.06
2013-9-16,61.7,54.3,49.4,55.0,48.7,45.0,100,83,57,30.39,30.18,20,5,20,0.00
2013-9-17,63.5,53.9,43.6,52.0,46.8,42.0,96,78,60,30.41,30.19,17,6,17,0.00
2013-9-18,73.2,64.6,54.9,60.0,54.3,49.0,83,71,57,30.20,29.99,17,7,17,0.00
2013-9-19,74.0,68.7,64.2,69.0,64.9,58.0,98,89,69,30.04,29.25,25,9,25,0.39
2013-9-20,74.9,67.7,64.4,70.0,65.3,59.0,99,93,82,29.87,29.78,27,12,30,0.00
2013-9-21,64.4,59.4,53.4,59.0,52.1,47.0,89,78,68,29.96,29.75,32,11,34,0.00
2013-9-22,57.6,52.3,47.2,48.0,44.6,41.0,88,76,59,30.10,29.96,21,5,22,0.00
2013-9-27,77.5,77.5,77.5,61.0,61.0,61.0,57,57,57,30.20,30.19,3,0,3,0.00
2013-10-15,64.0,60.8,59.0,60.0,57.4,53.0,99,90,71,29.92,29.80,36,12,36,0.21
2013-10-16,59.4,54.4,52.6,54.0,48.9,46.0,96,82,69,29.93,29.80,37,24,37,0.18
2013-10-17,53.4,50.1,48.2,52.0,47.5,40.0,100,91,64,29.93,29.80,29,8,30,0.66
2013-10-18,56.4,52.3,47.5,50.0,43.5,39.0,89,73,56,29.94,29.85,37,19,37,0.00
2013-10-19,51.9,49.8,46.5,42.0,37.6,31.0,76,63,48,29.93,29.74,51,21,51,0.14
2013-10-20,59.6,51.4,47.8,52.0,40.8,36.0,80,67,58,29.93,29.69,56,17,56,0.60
2013-10-21,58.8,49.0,42.0,51.0,39.8,28.0,81,70,56,29.94,29.76,48,25,48,0.50
2013-10-22,44.5,42.1,38.2,36.0,32.5,28.0,86,68,57,29.96,29.87,43,18,44,0.07
2013-10-23,43.1,37.3,32.2,37.0,33.5,28.0,99,86,53,30.01,29.90,30,7,30,0.22
2013-10-24,43.4,36.4,32.3,57.0,33.8,31.0,100,89,62,30.26,29.98,37,8,37,0.78
2013-10-25,51.0,43.0,33.8,37.0,32.9,23.0,98,68,49,30.37,29.97,57,19,57,2.34
2013-10-26,51.0,49.3,46.1,41.0,36.9,32.0,73,62,54,30.08,29.13,67,31,67,9.71
2013-10-27,52.8,46.6,40.2,39.0,34.0,29.0,70,61,56,30.08,29.98,36,16,36,0.00
2013-10-28,52.7,45.4,38.9,40.0,36.3,32.0,87,70,56,30.44,30.05,32,8,32,0.00
2013-10-29,52.8,43.5,39.2,41.0,34.6,29.0,84,70,63,30.44,30.23,19,6,19,0.00
2013-10-30,60.9,50.8,39.7,56.0,45.7,36.0,97,83,67,30.23,29.85,24,7,24,0.27
2013-10-31,60.9,58.2,53.0,60.0,57.9,52.0,100,99,97,29.85,29.16,48,14,48,0.51
2013-11-1,53.0,47.4,45.2,52.0,44.2,41.0,98,89,82,29.73,29.21,56,27,56,2.09
2013-11-2,48.2,44.7,41.6,45.0,40.7,37.0,99,87,69,30.15,29.70,25,6,25,0.17
2013-11-3,51.3,42.7,37.4,39.0,35.4,33.0,94,75,51,30.39,30.15,22,6,22,0.06
2013-11-4,53.5,45.8,39.2,43.0,36.0,33.0,85,69,52,30.39,30.21,31,12,31,0.00
2013-11-5,55.3,53.2,51.8,50.0,47.1,43.0,89,81,68,30.34,30.07,30,11,32,0.01
2013-11-6,55.9,50.0,43.1,54.0,46.9,35.0,100,90,68,30.09,29.78,40,17,40,0.82
2013-11-7,43.1,40.0,36.2,36.0,32.7,29.0,92,73,65,30.23,30.04,42,18,42,0.16
2013-11-8,43.1,40.3,38.8,33.0,29.4,26.0,73,64,58,30.34,30.09,34,10,34,0.01
2013-11-9,51.8,48.9,43.1,46.0,39.6,31.0,80,71,54,30.10,29.82,59,26,59,15.84
2013-11-10,46.6,43.7,42.5,37.0,33.5,31.0,72,67,59,30.32,29.96,57,20,57,28.26
2013-11-11,47.0,37.9,27.0,39.0,31.8,21.0,94,78,66,30.43,30.05,41,16,41,0.15
2013-11-12,33.2,30.0,25.6,24.0,22.3,18.0,86,71,58,30.63,30.43,38,11,38,0.01
2013-11-13,41.4,36.9,32.7,32.0,26.6,23.0,70,65,59,30.55,30.13,52,27,52,2.92
2013-11-14,48.7,43.7,41.0,38.0,33.3,29.0,73,66,60,30.20,29.96,49,29,51,0.40
2013-11-15,47.3,46.0,44.2,40.0,37.0,35.0,77,71,62,30.04,29.94,41,20,41,0.00
2013-11-16,56.8,49.5,41.1,54.0,44.2,33.0,96,82,68,30.04,29.65,37,11,37,0.30
2013-11-17,65.4,55.2,44.3,77.0,52.8,39.0,99,91,78,29.70,29.05,80,23,80,27.48
2013-11-18,46.4,38.7,35.3,40.0,31.3,26.0,81,74,67,30.22,29.56,58,25,58,12.42
2013-11-19,40.5,35.9,31.9,31.0,26.6,24.0,77,68,59,30.41,30.21,33,7,33,0.00
2013-11-20,43.9,36.9,30.6,35.0,26.4,24.0,83,66,47,30.39,30.20,32,9,32,0.01
2013-11-21,48.1,44.4,37.6,45.0,40.7,35.0,98,87,74,30.26,30.18,19,8,19,0.06
2013-11-22,45.5,38.6,34.5,44.0,33.6,26.0,95,82,68,30.45,30.19,31,12,32,0.01
2013-11-23,36.3,25.1,16.9,26.0,19.4,16.0,91,77,53,30.61,30.32,47,15,47,0.49
2013-11-24,30.4,23.2,16.4,21.0,15.7,14.0,93,71,54,30.65,30.31,42,16,45,0.21
2013-11-25,35.4,32.6,28.5,32.0,25.5,18.0,96,75,54,30.37,30.01,48,33,48,1.70
2013-11-26,37.9,33.9,26.0,32.0,26.3,16.0,84,73,58,30.09,29.98,39,17,39,0.00
2013-11-27,29.4,25.2,21.1,21.0,17.3,14.0,85,70,58,30.25,30.07,33,8,33,0.00
2013-11-28,32.6,25.7,22.0,26.0,21.1,16.0,95,81,66,30.47,30.22,26,7,26,0.00
2013-11-29,33.3,28.7,25.8,24.0,22.9,21.0,88,76,65,30.66,30.46,21,6,21,0.00
2013-11-30,44.5,37.2,29.6,39.0,29.3,23.0,83,72,61,30.49,30.07,29,12,29,0.00
2013-12-1,43.9,39.1,34.9,38.0,32.0,24.0,86,75,61,30.14,30.05,23,6,23,0.00
2013-12-2,39.9,34.2,29.9,32.0,27.5,24.0,95,76,64,30.05,29.89,19,5,19,0.00
2013-12-3,37.4,33.8,30.3,37.0,32.5,24.0,100,94,69,29.91,29.79,25,10,25,0.26
2013-12-4,57.0,45.4,37.4,54.0,44.9,37.0,100,99,91,29.85,29.59,33,11,33,0.01
2013-12-5,49.6,34.4,27.6,49.0,29.4,21.0,99,81,70,30.23,29.63,45,25,45,0.07
2013-12-6,27.7,23.9,21.8,23.0,18.0,14.0,83,77,70,30.45,30.21,28,12,28,0.00
2013-12-7,21.8,19.5,15.1,16.0,14.3,11.0,88,75,67,30.65,30.44,32,11,32,0.00
2013-12-8,21.0,18.2,15.3,18.0,15.9,14.0,95,87,73,30.59,29.97,25,7,25,0.00
2013-12-9,31.2,24.5,17.5,29.0,20.1,11.0,95,81,69,30.16,29.85,54,27,54,4.28
2013-12-10,24.4,19.5,11.5,18.0,14.5,11.0,90,78,68,30.23,29.88,54,27,54,4.65
2013-12-11,22.0,18.5,14.2,21.0,14.2,8.0,90,79,71,30.48,30.19,36,19,37,0.02
2013-12-12,26.4,19.6,13.2,23.0,15.9,8.0,87,81,72,30.47,30.18,48,25,48,0.81
2013-12-13,28.2,25.9,21.7,24.0,21.4,16.0,86,80,76,30.25,30.16,31,9,31,0.00
2013-12-14,21.7,19.4,17.2,18.0,17.3,16.0,93,89,82,30.23,29.95,29,8,29,0.00
2013-12-15,28.9,21.0,17.6,26.0,17.0,11.0,92,81,71,30.08,29.19,41,19,41,1.02
2013-12-16,24.2,18.8,15.3,16.0,13.6,11.0,90,76,56,30.18,29.38,20,7,20,0.00
2013-12-17,33.6,28.8,17.8,54.0,25.3,16.0,98,86,65,30.03,29.86,38,21,38,0.02
2013-12-18,36.8,29.4,25.2,32.0,22.2,14.0,82,72,50,30.16,29.84,40,18,40,0.00
2013-12-19,38.7,36.5,31.3,35.0,33.2,31.0,99,87,80,30.01,29.82,36,11,36,0.00
2013-12-20,32.4,31.6,30.2,32.0,31.6,31.0,100,99,99,29.89,29.78,18,3,19,0.05
2013-12-21,32.9,31.7,29.6,33.0,31.7,31.0,100,100,98,29.91,29.71,9,1,9,0.02
2013-12-22,31.7,30.0,27.4,32.0,30.5,28.0,100,99,97,30.06,29.58,8,1,9,0.01
2013-12-23,27.5,23.8,17.7,28.0,22.6,16.0,98,92,77,30.35,30.06,14,2,14,19.25
2013-12-24,23.6,18.3,13.2,21.0,16.2,11.0,94,89,72,30.51,30.27,15,4,15,29.97
2013-12-25,28.9,22.8,13.7,28.0,21.0,11.0,98,90,83,30.45,30.04,32,15,32,0.00
2013-12-26,34.0,26.8,24.5,35.0,24.0,21.0,99,86,75,30.27,30.03,39,17,39,0.00
2013-12-27,39.0,33.1,28.1,36.0,31.4,26.0,97,92,86,30.31,30.05,37,12,37,0.24
2013-12-28,40.4,37.5,34.0,36.0,34.5,33.0,97,88,81,30.12,29.88,32,16,33,0.03
2013-12-29,37.4,30.0,20.8,35.0,26.9,14.0,98,88,72,30.12,29.78,35,16,38,0.01
2013-12-30,20.9,16.8,14.7,14.0,12.7,11.0,88,78,69,30.30,30.11,30,11,30,0.00
2013-12-31,18.6,17.1,14.9,16.0,14.5,11.0,92,84,77,30.35,30.09,36,18,36,0.00
2014-1-1,17.5,11.6,10.7,16.0,8.4,4.0,92,84,75,30.41,30.26,22,6,22,0.00
2014-1-2,14.5,11.2,4.4,11.0,7.1,0.0,86,76,62,30.39,30.19,28,6,28,0.00